createdAt,value
2023-11-13T00:02:20.186Z,49.00
2023-11-13T00:04:55.616Z,48.90
2023-11-13T00:07:28.801Z,48.90
2023-11-13T00:10:02.277Z,49.10
2023-11-13T00:12:35.529Z,49.00
2023-11-13T00:15:10.620Z,48.80
2023-11-13T00:17:43.811Z,48.70
2023-11-13T00:20:20.142Z,48.40
2023-11-13T00:22:53.232Z,48.30
2023-11-13T00:25:26.502Z,48.10
2023-11-13T00:27:59.638Z,48.00
2023-11-13T00:30:32.933Z,47.90
2023-11-13T00:33:06.094Z,47.80
2023-11-13T00:35:42.650Z,47.70
2023-11-13T00:38:15.814Z,47.60
2023-11-13T00:40:49.144Z,47.60
2023-11-13T00:43:22.280Z,48.10
2023-11-13T00:45:55.425Z,47.40
2023-11-13T00:48:28.745Z,47.40
2023-11-13T00:51:03.826Z,47.30
2023-11-13T00:53:38.256Z,47.30
2023-11-13T00:56:11.415Z,47.20
2023-11-13T00:58:44.522Z,47.20
2023-11-13T01:01:18.198Z,47.20
2023-11-13T01:03:51.405Z,47.20
2023-11-13T01:06:26.674Z,47.40
2023-11-13T01:08:59.849Z,47.20
2023-11-13T01:11:33.063Z,47.20
2023-11-13T01:14:06.338Z,47.10
2023-11-13T01:16:39.985Z,47.10
2023-11-13T01:19:13.109Z,47.10
2023-11-13T01:21:47.711Z,47.30
2023-11-13T01:24:20.983Z,47.10
2023-11-13T01:26:54.258Z,47.10
2023-11-13T01:29:27.874Z,47.60
2023-11-13T01:32:02.274Z,47.10
2023-11-13T01:34:35.453Z,47.10
2023-11-13T01:37:10.526Z,47.10
2023-11-13T01:39:44.777Z,47.10
2023-11-13T01:42:18.333Z,47.00
2023-11-13T01:44:52.280Z,47.00
2023-11-13T01:47:26.011Z,47.00
2023-11-13T01:49:59.817Z,47.00
2023-11-13T01:52:35.038Z,47.00
2023-11-13T01:55:12.781Z,47.30
2023-11-13T01:57:46.702Z,47.10
2023-11-13T02:00:20.472Z,46.90
2023-11-13T02:02:55.582Z,46.90
2023-11-13T02:05:29.413Z,46.90
2023-11-13T02:08:03.720Z,46.90
2023-11-13T02:10:37.608Z,47.10
2023-11-13T02:13:13.269Z,47.20
2023-11-13T02:15:47.541Z,46.90
2023-11-13T02:18:20.744Z,46.80
2023-11-13T02:20:53.918Z,46.80
2023-11-13T02:23:28.375Z,46.80
2023-11-13T02:26:08.793Z,46.80
2023-11-13T02:28:41.940Z,46.80
2023-11-13T02:31:15.290Z,46.80
2023-11-13T02:33:48.548Z,46.80
2023-11-13T02:36:21.693Z,46.80
2023-11-13T02:38:56.131Z,46.80
2023-11-13T02:41:29.231Z,46.80
2023-11-13T02:44:02.324Z,46.70
2023-11-13T02:46:36.196Z,46.80
2023-11-13T02:49:09.682Z,47.10
2023-11-13T02:51:43.018Z,47.80
2023-11-13T02:54:17.841Z,48.20
2023-11-13T02:56:51.010Z,48.60
2023-11-13T02:59:24.115Z,48.90
2023-11-13T03:01:57.487Z,49.00
2023-11-13T03:04:31.436Z,49.20
2023-11-13T03:07:05.217Z,48.90
2023-11-13T03:09:39.708Z,48.90
2023-11-13T03:12:12.992Z,49.00
2023-11-13T03:14:46.403Z,49.10
2023-11-13T03:17:20.105Z,49.20
2023-11-13T03:19:53.875Z,49.20
2023-11-13T03:22:27.082Z,49.40
2023-11-13T03:25:01.531Z,49.30
2023-11-13T03:27:34.755Z,49.40
2023-11-13T03:30:09.362Z,49.40
2023-11-13T03:32:44.052Z,49.40
2023-11-13T03:35:18.676Z,49.60
2023-11-13T03:37:51.849Z,49.60
2023-11-13T03:40:26.450Z,49.60
2023-11-13T03:42:59.712Z,49.60
2023-11-13T03:45:33.517Z,49.50
2023-11-13T03:48:07.329Z,49.50
2023-11-13T03:50:40.289Z,49.40
2023-11-13T03:53:13.377Z,49.30
2023-11-13T03:55:47.946Z,49.20
2023-11-13T03:58:21.058Z,49.20
2023-11-13T04:00:54.774Z,49.10
2023-11-13T04:03:27.960Z,49.10
2023-11-13T04:06:01.075Z,49.00
2023-11-13T04:08:34.143Z,49.00
2023-11-13T04:11:10.957Z,48.90
2023-11-13T04:13:46.541Z,48.90
2023-11-13T04:16:19.923Z,48.90
2023-11-13T04:18:53.308Z,48.90
2023-11-13T04:21:26.460Z,48.80
2023-11-13T04:23:59.875Z,48.80
2023-11-13T04:26:35.091Z,48.80
2023-11-13T04:29:08.201Z,48.70
2023-11-13T04:31:41.307Z,48.80
2023-11-13T04:34:14.419Z,49.30
2023-11-13T04:36:47.885Z,48.70
2023-11-13T04:39:24.392Z,48.70
2023-11-13T04:41:59.209Z,48.60
2023-11-13T04:44:32.316Z,48.70
2023-11-13T04:47:05.771Z,48.60
2023-11-13T04:49:38.908Z,48.60
2023-11-13T04:52:11.999Z,48.60
2023-11-13T04:54:45.109Z,48.60
2023-11-13T04:57:20.163Z,48.60
2023-11-13T04:59:53.242Z,48.60
2023-11-13T05:02:26.597Z,48.60
2023-11-13T05:04:59.704Z,48.60
2023-11-13T05:07:32.888Z,48.50
2023-11-13T05:10:07.122Z,48.50
2023-11-13T05:12:41.967Z,48.50
2023-11-13T05:15:15.787Z,48.50
2023-11-13T05:17:48.917Z,48.40
2023-11-13T05:20:22.527Z,48.50
2023-11-13T05:22:55.685Z,48.50
2023-11-13T05:25:28.864Z,48.50
2023-11-13T05:28:07.985Z,49.00
2023-11-13T05:30:41.132Z,48.40
2023-11-13T05:33:14.331Z,48.40
2023-11-13T05:35:47.432Z,48.30
2023-11-13T05:38:20.756Z,48.30
2023-11-13T05:40:54.106Z,48.30
2023-11-13T05:43:28.556Z,48.30
2023-11-13T05:46:03.571Z,48.30
2023-11-13T05:48:36.767Z,48.20
2023-11-13T05:51:09.847Z,48.20
2023-11-13T05:53:42.965Z,48.20
2023-11-13T05:56:17.182Z,48.20
2023-11-13T05:58:51.664Z,48.10
2023-11-13T06:01:25.188Z,48.10
2023-11-13T06:03:58.425Z,48.40
2023-11-13T06:06:31.599Z,49.40
2023-11-13T06:09:05.917Z,49.20
2023-11-13T06:11:39.033Z,49.40
2023-11-13T06:14:13.797Z,49.40
2023-11-13T06:16:46.982Z,49.40
2023-11-13T06:19:20.177Z,49.40
2023-11-13T06:21:53.524Z,49.50
2023-11-13T06:24:26.611Z,49.50
2023-11-13T06:26:59.828Z,49.70
2023-11-13T06:29:34.634Z,49.60
2023-11-13T06:32:09.264Z,49.70
2023-11-13T06:34:42.538Z,49.80
2023-11-13T06:37:16.853Z,50.00
2023-11-13T06:39:50.088Z,49.90
2023-11-13T06:42:23.189Z,49.90
2023-11-13T06:44:57.696Z,49.80
2023-11-13T06:47:30.898Z,49.70
2023-11-13T06:50:04.032Z,49.60
2023-11-13T06:52:37.287Z,49.50
2023-11-13T06:55:14.288Z,49.40
2023-11-13T06:57:47.606Z,49.30
2023-11-13T07:00:24.130Z,49.20
2023-11-13T07:02:57.272Z,49.20
2023-11-13T07:05:31.670Z,49.20
2023-11-13T07:08:05.553Z,49.10
2023-11-13T07:10:40.041Z,49.10
2023-11-13T07:13:13.718Z,49.00
2023-11-13T07:15:48.416Z,48.90
2023-11-13T07:18:21.607Z,48.80
2023-11-13T07:20:55.617Z,48.70
2023-11-13T07:23:30.085Z,48.70
2023-11-13T07:26:05.909Z,48.60
2023-11-13T07:28:39.139Z,48.40
2023-11-13T07:31:15.270Z,48.20
2023-11-13T07:33:48.681Z,48.10
2023-11-13T07:36:21.830Z,48.00
2023-11-13T07:38:55.024Z,48.20
2023-11-13T07:41:28.128Z,48.00
2023-11-13T07:44:02.492Z,47.90
2023-11-13T07:46:37.161Z,47.80
2023-11-13T07:49:11.452Z,49.10
2023-11-13T07:51:44.883Z,48.90
2023-11-13T07:54:18.020Z,48.80
2023-11-13T07:56:53.092Z,49.30
2023-11-13T07:59:26.254Z,49.50
2023-11-13T08:02:00.839Z,49.50
2023-11-13T08:04:34.211Z,49.30
2023-11-13T08:07:16.949Z,49.00
2023-11-13T08:09:54.387Z,49.00
2023-11-13T08:12:28.789Z,49.00
2023-11-13T08:15:01.946Z,49.10
2023-11-13T08:17:36.489Z,49.10
2023-11-13T08:20:11.768Z,49.00
2023-11-13T08:22:47.155Z,49.20
2023-11-13T08:25:20.705Z,49.50
2023-11-13T08:27:54.222Z,49.20
2023-11-13T08:30:27.359Z,49.60
2023-11-13T08:33:01.847Z,49.80
2023-11-13T08:35:35.213Z,49.60
2023-11-13T08:38:10.715Z,49.70
2023-11-13T08:40:45.044Z,50.30
2023-11-13T08:43:18.198Z,50.60
2023-11-13T08:46:00.381Z,50.60
2023-11-13T08:48:36.543Z,50.40
2023-11-13T08:51:10.781Z,50.30
2023-11-13T08:53:44.514Z,50.40
2023-11-13T08:56:17.458Z,50.40
2023-11-13T08:58:50.565Z,50.20
2023-11-13T09:01:27.016Z,50.10
2023-11-13T09:04:02.416Z,46.50
2023-11-13T09:06:36.739Z,42.20
2023-11-13T09:09:13.515Z,39.70
2023-11-13T09:11:49.047Z,39.10
2023-11-13T09:14:23.608Z,39.10
2023-11-13T09:16:56.852Z,39.10
2023-11-13T09:19:31.351Z,39.50
2023-11-13T09:22:04.522Z,39.50
2023-11-13T09:24:39.568Z,39.80
2023-11-13T09:27:13.286Z,40.20
2023-11-13T09:29:47.450Z,40.00
2023-11-13T09:32:22.486Z,42.80
2023-11-13T09:34:58.707Z,40.60
2023-11-13T09:37:31.888Z,40.80
2023-11-13T09:40:08.981Z,40.70
2023-11-13T09:42:46.508Z,41.00
2023-11-13T09:45:20.335Z,41.60
2023-11-13T09:48:01.000Z,42.10
2023-11-13T09:50:36.879Z,42.60
2023-11-13T09:53:10.600Z,42.80
2023-11-13T09:55:43.849Z,43.00
2023-11-13T09:58:17.587Z,43.10
2023-11-13T10:00:52.853Z,43.10
2023-11-13T10:03:26.100Z,43.10
2023-11-13T10:06:01.937Z,43.10
2023-11-13T10:08:42.136Z,43.30
2023-11-13T10:11:15.614Z,43.10
2023-11-13T10:13:48.834Z,43.10
2023-11-13T10:16:24.208Z,43.10
2023-11-13T10:18:57.791Z,43.30
2023-11-13T10:21:35.756Z,43.30
2023-11-13T10:24:30.587Z,43.40
2023-11-13T10:27:14.863Z,43.50
2023-11-13T10:29:48.553Z,43.20
2023-11-13T10:32:31.987Z,43.20
2023-11-13T10:35:10.232Z,43.40
2023-11-13T10:37:57.718Z,43.00
2023-11-13T10:40:31.279Z,43.50
2023-11-13T10:43:08.552Z,43.10
2023-11-13T10:45:48.273Z,43.60
2023-11-13T10:48:25.100Z,43.10
2023-11-13T10:51:02.776Z,43.30
2023-11-13T10:53:40.618Z,43.80
2023-11-13T10:56:15.100Z,44.60
2023-11-13T10:58:49.629Z,44.80
2023-11-13T11:01:30.258Z,45.00
2023-11-13T11:04:07.994Z,46.10
2023-11-13T11:06:44.878Z,45.50
2023-11-13T11:09:20.289Z,45.50
2023-11-13T11:11:54.020Z,45.50
2023-11-13T11:14:44.364Z,45.20
2023-11-13T11:17:26.222Z,44.60
2023-11-13T11:20:06.917Z,42.60
2023-11-13T11:22:47.830Z,41.40
2023-11-13T11:25:40.442Z,40.90
2023-11-13T11:28:45.154Z,40.30
2023-11-13T11:31:49.210Z,39.40
2023-11-13T11:34:25.337Z,39.30
2023-11-13T11:37:03.366Z,39.10
2023-11-13T11:39:46.906Z,38.70
2023-11-13T11:42:24.965Z,38.10
2023-11-13T11:45:03.852Z,37.80
2023-11-13T11:47:39.978Z,37.30
2023-11-13T11:50:14.342Z,37.20
2023-11-13T11:52:53.252Z,36.80
2023-11-13T11:55:31.018Z,36.50
2023-11-13T11:58:05.794Z,36.80
2023-11-13T12:00:38.969Z,37.20
2023-11-13T12:03:13.037Z,37.00
2023-11-13T12:05:46.188Z,37.20
2023-11-13T12:08:20.342Z,37.20
2023-11-13T12:10:53.646Z,37.20
2023-11-13T12:13:28.963Z,37.30
2023-11-13T12:16:02.172Z,38.00
2023-11-13T12:18:35.279Z,37.40
2023-11-13T12:21:09.924Z,37.40
2023-11-13T12:23:44.105Z,37.40
2023-11-13T12:26:17.243Z,37.50
2023-11-13T12:28:52.659Z,37.40
2023-11-13T12:31:25.865Z,37.50
2023-11-13T12:33:59.850Z,37.50
2023-11-13T12:36:33.784Z,37.40
2023-11-13T12:39:08.405Z,37.50
2023-11-13T12:41:41.648Z,37.50
2023-11-13T12:44:18.868Z,37.30
2023-11-13T12:46:54.643Z,37.80
2023-11-13T12:49:27.976Z,37.30
2023-11-13T12:52:04.532Z,37.60
2023-11-13T12:54:38.625Z,37.80
2023-11-13T12:57:19.760Z,37.90
2023-11-13T12:59:54.646Z,38.00
2023-11-13T13:02:27.865Z,38.10
2023-11-13T13:05:03.308Z,38.10
2023-11-13T13:07:38.336Z,38.20
2023-11-13T13:10:13.676Z,38.20
2023-11-13T13:12:51.487Z,38.20
2023-11-13T13:15:28.188Z,38.20
2023-11-13T13:18:04.300Z,38.20
2023-11-13T13:20:38.202Z,38.10
2023-11-13T13:23:11.840Z,38.30
2023-11-13T13:25:45.186Z,39.20
2023-11-13T13:28:20.104Z,38.40
2023-11-13T13:30:54.701Z,38.60
2023-11-13T13:33:27.828Z,38.60
2023-11-13T13:36:01.757Z,38.60
2023-11-13T13:38:34.949Z,38.70
2023-11-13T13:41:08.949Z,38.80
2023-11-13T13:43:43.023Z,39.30
2023-11-13T13:46:18.748Z,39.70
2023-11-13T13:48:51.891Z,40.00
2023-11-13T13:51:26.066Z,40.30
2023-11-13T13:54:00.922Z,40.50
2023-11-13T13:56:34.209Z,40.80
2023-11-13T13:59:07.855Z,40.80
2023-11-13T14:01:42.530Z,40.80
2023-11-13T14:04:15.882Z,40.90
2023-11-13T14:06:49.045Z,41.30
2023-11-13T14:09:23.838Z,40.80
2023-11-13T14:12:01.447Z,40.60
2023-11-13T14:14:39.526Z,40.80
2023-11-13T14:17:14.162Z,40.80
2023-11-13T14:19:47.447Z,41.10
2023-11-13T14:22:22.871Z,41.10
2023-11-13T14:24:56.181Z,41.20
2023-11-13T14:27:29.307Z,41.20
2023-11-13T14:30:03.618Z,41.30
2023-11-13T14:32:38.659Z,41.20
2023-11-13T14:35:13.757Z,41.90
2023-11-13T14:37:47.019Z,41.50
2023-11-13T14:40:20.542Z,41.50
2023-11-13T14:42:54.419Z,41.50
2023-11-13T14:45:27.527Z,41.50
2023-11-13T14:48:02.105Z,41.40
2023-11-13T14:50:36.311Z,41.50
2023-11-13T14:53:09.515Z,41.70
2023-11-13T14:55:43.851Z,41.90
2023-11-13T14:58:18.302Z,42.10
2023-11-13T15:00:51.793Z,42.00
2023-11-13T15:03:26.335Z,42.10
2023-11-13T15:06:00.243Z,42.60
2023-11-13T15:08:33.394Z,42.00
2023-11-13T15:11:10.974Z,42.50
2023-11-13T15:13:45.680Z,42.10
2023-11-13T15:16:20.119Z,42.20
2023-11-13T15:18:55.914Z,41.80
2023-11-13T15:21:29.116Z,41.90
2023-11-13T15:24:02.292Z,41.80
2023-11-13T15:26:35.566Z,41.90
2023-11-13T15:29:09.643Z,41.90
2023-11-13T15:31:43.125Z,41.90
2023-11-13T15:34:24.401Z,42.00
2023-11-13T15:37:02.526Z,42.30
2023-11-13T15:39:36.269Z,42.30
2023-11-13T15:42:10.708Z,42.40
2023-11-13T15:44:43.772Z,43.10
2023-11-13T15:47:16.937Z,43.00
2023-11-13T15:49:51.439Z,42.50
2023-11-13T15:52:25.332Z,42.50
2023-11-13T15:54:58.549Z,42.60
2023-11-13T15:57:31.824Z,42.50
2023-11-13T16:00:07.408Z,42.60
2023-11-13T16:02:41.460Z,42.70
2023-11-13T16:05:16.423Z,42.70
2023-11-13T16:07:50.094Z,42.70
2023-11-13T16:10:24.287Z,42.80
2023-11-13T16:12:58.177Z,42.80
2023-11-13T16:15:31.154Z,42.80
2023-11-13T16:18:05.087Z,43.40
2023-11-13T16:20:39.924Z,42.90
2023-11-13T16:23:13.207Z,43.10
2023-11-13T16:25:54.142Z,43.20
2023-11-13T16:28:31.080Z,43.20
2023-11-13T16:31:08.660Z,43.20
2023-11-13T16:33:42.173Z,43.00
2023-11-13T16:36:18.625Z,42.90
2023-11-13T16:38:51.740Z,42.80
2023-11-13T16:41:25.412Z,42.70
2023-11-13T16:43:58.856Z,42.60
2023-11-13T16:46:34.066Z,43.00
2023-11-13T16:49:08.974Z,42.40
2023-11-13T16:51:43.451Z,42.20
2023-11-13T16:54:16.955Z,42.00
2023-11-13T16:56:50.032Z,41.50
2023-11-13T16:59:23.179Z,41.50
2023-11-13T17:01:56.608Z,41.60
2023-11-13T17:04:29.799Z,41.70
2023-11-13T17:07:16.046Z,41.50
2023-11-13T17:09:51.629Z,41.50
2023-11-13T17:12:24.843Z,41.50
2023-11-13T17:14:58.284Z,41.50
2023-11-13T17:17:31.535Z,41.70
2023-11-13T17:20:09.195Z,42.10
2023-11-13T17:22:43.685Z,42.50
2023-11-13T17:25:16.892Z,42.50
2023-11-13T17:27:50.092Z,42.90
2023-11-13T17:30:23.198Z,43.30
2023-11-13T17:32:56.664Z,43.50
2023-11-13T17:35:29.789Z,43.10
2023-11-13T17:38:06.353Z,43.40
2023-11-13T17:40:39.593Z,43.60
2023-11-13T17:43:12.962Z,43.40
2023-11-13T17:45:47.612Z,43.30
2023-11-13T17:48:21.090Z,43.20
2023-11-13T17:50:55.432Z,43.00
2023-11-13T17:53:29.949Z,42.90
2023-11-13T17:56:04.333Z,42.90
2023-11-13T17:58:37.448Z,43.60
2023-11-13T18:01:11.556Z,43.10
2023-11-13T18:03:45.426Z,43.10
2023-11-13T18:06:18.701Z,43.00
2023-11-13T18:08:53.164Z,43.30
2023-11-13T18:11:26.981Z,42.60
2023-11-13T18:14:00.292Z,42.60
2023-11-13T18:16:33.475Z,42.70
2023-11-13T18:19:11.778Z,42.60
2023-11-13T18:21:45.063Z,42.60
2023-11-13T18:24:19.735Z,42.70
2023-11-13T18:26:52.898Z,42.40
2023-11-13T18:29:26.645Z,42.40
2023-11-13T18:31:59.791Z,42.20
2023-11-13T18:34:33.290Z,42.90
2023-11-13T18:37:06.756Z,42.20
2023-11-13T18:39:41.268Z,42.20
2023-11-13T18:42:15.809Z,42.30
2023-11-13T18:44:49.747Z,42.20
2023-11-13T18:47:23.117Z,42.30
2023-11-13T18:49:56.377Z,42.40
2023-11-13T18:52:30.830Z,42.30
2023-11-13T18:55:07.955Z,42.20
2023-11-13T18:57:41.412Z,42.40
2023-11-13T19:00:15.627Z,42.60
2023-11-13T19:02:49.187Z,42.60
2023-11-13T19:05:22.485Z,42.60
2023-11-13T19:07:55.705Z,42.60
2023-11-13T19:10:31.076Z,42.70
2023-11-13T19:13:05.887Z,42.80
2023-11-13T19:15:41.582Z,42.90
2023-11-13T19:18:16.299Z,43.00
2023-11-13T19:20:49.574Z,43.00
2023-11-13T19:23:23.594Z,43.10
2023-11-13T19:25:58.249Z,43.00
2023-11-13T19:28:31.674Z,43.10
2023-11-13T19:31:05.624Z,43.10
2023-11-13T19:33:39.341Z,43.20
2023-11-13T19:36:13.046Z,43.30
2023-11-13T19:38:46.192Z,43.70
2023-11-13T19:41:20.682Z,43.40
2023-11-13T19:43:53.920Z,43.50
2023-11-13T19:46:27.089Z,43.60
2023-11-13T19:49:00.345Z,43.80
2023-11-13T19:51:33.677Z,43.90
2023-11-13T19:54:07.148Z,43.90
2023-11-13T19:56:41.783Z,44.00
2023-11-13T19:59:15.105Z,44.30
2023-11-13T20:01:48.265Z,44.40
2023-11-13T20:04:22.165Z,44.30
2023-11-13T20:06:55.327Z,44.30
2023-11-13T20:09:31.015Z,44.00
2023-11-13T20:12:08.504Z,43.80
2023-11-13T20:14:42.953Z,43.50
2023-11-13T20:17:16.177Z,43.20
2023-11-13T20:19:51.848Z,43.00
2023-11-13T20:22:25.024Z,43.10
2023-11-13T20:24:58.713Z,43.00
2023-11-13T20:27:33.995Z,42.90
2023-11-13T20:30:08.608Z,43.40
2023-11-13T20:32:41.833Z,42.80
2023-11-13T20:35:15.160Z,42.60
2023-11-13T20:37:48.428Z,42.50
2023-11-13T20:40:21.800Z,42.40
2023-11-13T20:42:56.296Z,42.20
2023-11-13T20:45:30.552Z,42.00
2023-11-13T20:48:04.195Z,41.90
2023-11-13T20:50:38.525Z,41.90
2023-11-13T20:53:11.720Z,41.70
2023-11-13T20:55:44.912Z,41.70
2023-11-13T20:58:19.535Z,41.80
2023-11-13T21:00:54.556Z,41.80
2023-11-13T21:03:29.083Z,41.70
2023-11-13T21:06:07.652Z,41.60
2023-11-13T21:08:41.764Z,41.50
2023-11-13T21:11:15.105Z,42.20
2023-11-13T21:13:50.001Z,41.70
2023-11-13T21:16:23.230Z,41.90
2023-11-13T21:18:56.545Z,41.90
2023-11-13T21:21:32.119Z,42.10
2023-11-13T21:24:10.155Z,42.90
2023-11-13T21:26:43.282Z,42.30
2023-11-13T21:29:17.817Z,42.40
2023-11-13T21:31:50.965Z,42.60
2023-11-13T21:34:24.292Z,42.70
2023-11-13T21:36:57.730Z,42.80
2023-11-13T21:39:31.299Z,42.80
2023-11-13T21:42:05.076Z,42.80
2023-11-13T21:44:39.729Z,42.90
2023-11-13T21:47:12.921Z,43.00
2023-11-13T21:49:47.652Z,43.00
2023-11-13T21:52:24.346Z,43.10
2023-11-13T21:54:58.339Z,43.10
2023-11-13T21:57:31.316Z,43.20
2023-11-13T22:00:07.190Z,43.60
2023-11-13T22:02:41.204Z,43.30
2023-11-13T22:05:14.877Z,43.20
2023-11-13T22:07:48.220Z,43.30
2023-11-13T22:10:21.978Z,43.30
2023-11-13T22:12:55.772Z,43.40
2023-11-13T22:15:30.389Z,43.40
2023-11-13T22:18:04.842Z,43.60
2023-11-13T22:20:38.155Z,43.60
2023-11-13T22:23:12.267Z,43.60
2023-11-13T22:25:45.469Z,43.50
2023-11-13T22:28:18.652Z,43.60
2023-11-13T22:30:53.297Z,43.70
2023-11-13T22:33:27.239Z,43.70
2023-11-13T22:36:00.499Z,43.70
2023-11-13T22:38:33.652Z,43.70
2023-11-13T22:41:07.480Z,43.70
2023-11-13T22:43:40.865Z,43.60
2023-11-13T22:46:15.550Z,43.70
2023-11-13T22:48:48.770Z,43.60
2023-11-13T22:51:21.967Z,43.60
2023-11-13T22:53:55.157Z,43.60
2023-11-13T22:56:28.487Z,43.60
2023-11-13T22:59:01.679Z,43.50
2023-11-13T23:01:36.267Z,43.60
2023-11-13T23:04:09.627Z,43.50
2023-11-13T23:06:44.296Z,43.40
2023-11-13T23:09:17.741Z,43.50
2023-11-13T23:11:50.981Z,43.30
2023-11-13T23:14:24.367Z,44.20
2023-11-13T23:16:59.155Z,45.90
2023-11-13T23:19:32.323Z,46.00
2023-11-13T23:22:06.710Z,46.60
2023-11-13T23:24:40.416Z,47.30
2023-11-13T23:27:13.613Z,47.50
2023-11-13T23:29:47.383Z,47.60
2023-11-13T23:32:22.103Z,47.70
2023-11-13T23:34:56.060Z,47.50
2023-11-13T23:37:29.291Z,47.30
2023-11-13T23:40:02.470Z,47.00
2023-11-13T23:42:36.413Z,46.80
2023-11-13T23:45:10.622Z,46.60
2023-11-13T23:47:45.547Z,46.50
2023-11-13T23:50:18.866Z,46.40
2023-11-13T23:52:52.112Z,46.30
2023-11-13T23:55:25.588Z,46.20
2023-11-13T23:57:58.959Z,46.20
